METAR AND TAF INFORMATION
METAR FOR WAJJ
ADDS - METARS form results

(0934 UTC 19 January 2019)
Data provider http://aviationweather.gov/metar/data/
 
METAR text: WAJJ 190900Z 17003KT 5000 TS FEW011CB SCT012 28/25 Q1006 NOSIG
Conditions at: WAJJ (JAYAPURA/SENTANI, ID) observed 0900 UTC 19 January 2019
Temperature: 28.0°C (82°F)
Dewpoint: 25.0°C (77°F) [RH = 84%]
Pressure (altimeter): 29.70 inches Hg (1006.0 mb)
Winds: from the S (170 degrees) at 3 MPH (3 knots; 1.5 m/s)
Visibility: 3 miles ( 5 km)
Ceiling: at least 12,000 feet AGL
Clouds: few clouds at 1100 feet AGL
scattered clouds at 1200 feet AGL
Weather: TS  (thunderstorm)

 AIRPORT MAP

 RUNWAY INFORMATION
Runway 12 Runway length 7161 ft Runway width 148 ft
Runway elevation 292 ft Runway displaced threshold 0 ft Runway heading 127
Runway 30 Runway length 7161 ft Runway width 148 ft
Runway elevation 289 ft Runway displaced threshold 0 ft Runway heading 307

 AIRPORT FREQUENCIES
Type APP Name JAYAPURA A Frequency 119.1 MHZ
Type ATIS Name ATIS Frequency 128.8 MHZ
Type INFO Name JAYAPURA I Frequency 295.6 MHZ
Type TWR Name TWR Frequency 118.1 MHZ

 AIRPORT NEAR NAVIGATION AIDS
Type VOR-DME Name Jayapura Frequency 116200 KHZ
Type NDB Name Jayapura Frequency 395 KHZ



Powered by Virtual Airlines Manager [v2.6.2]